createdAt,value
2019-03-17T00:00:12.167Z,10.98
2019-03-17T00:02:41.678Z,11.00
2019-03-17T00:05:11.453Z,10.88
2019-03-17T00:07:42.533Z,10.83
2019-03-17T00:10:11.341Z,10.81
2019-03-17T00:12:40.335Z,10.86
2019-03-17T00:15:09.398Z,10.83
2019-03-17T00:17:38.043Z,10.95
2019-03-17T00:20:07.954Z,10.93
2019-03-17T00:22:36.571Z,10.86
2019-03-17T00:25:09.749Z,10.89
2019-03-17T00:27:37.361Z,10.86
2019-03-17T00:30:08.950Z,10.82
2019-03-17T00:32:37.591Z,10.83
2019-03-17T00:35:06.883Z,10.86
2019-03-17T00:37:35.682Z,10.85
2019-03-17T00:40:08.467Z,10.86
2019-03-17T00:42:37.083Z,10.68
2019-03-17T00:45:11.382Z,10.77
2019-03-17T00:47:39.376Z,10.79
2019-03-17T00:50:10.461Z,10.77
2019-03-17T00:52:39.185Z,10.81
2019-03-17T00:55:08.045Z,10.83
2019-03-17T00:57:36.729Z,10.82
2019-03-17T01:00:32.386Z,10.74
2019-03-17T01:03:01.103Z,10.77
2019-03-17T01:05:31.247Z,10.82
2019-03-17T01:08:00.495Z,10.82
2019-03-17T01:10:29.136Z,10.84
2019-03-17T01:12:57.882Z,10.78
2019-03-17T01:15:26.663Z,10.77
2019-03-17T01:17:55.393Z,10.75
2019-03-17T01:20:24.077Z,10.87
2019-03-17T01:22:52.811Z,10.96
2019-03-17T01:25:21.434Z,10.88
2019-03-17T01:27:50.226Z,10.86
2019-03-17T01:30:18.916Z,10.85
2019-03-17T01:32:47.665Z,10.83
2019-03-17T01:35:16.503Z,10.91
2019-03-17T01:37:45.221Z,10.88
2019-03-17T01:40:13.961Z,10.96
2019-03-17T01:42:42.771Z,10.85
2019-03-17T01:45:11.403Z,10.91
2019-03-17T01:47:40.144Z,10.98
2019-03-17T01:50:09.732Z,11.03
2019-03-17T01:52:38.438Z,10.98
2019-03-17T01:55:07.851Z,11.07
2019-03-17T01:57:36.575Z,10.99
2019-03-17T02:00:08.394Z,10.97
2019-03-17T02:02:37.107Z,10.95
2019-03-17T02:05:07.736Z,10.98
2019-03-17T02:07:36.499Z,10.93
2019-03-17T02:10:06.984Z,11.00
2019-03-17T02:12:35.839Z,10.97
2019-03-17T02:15:07.867Z,10.87
2019-03-17T02:17:36.617Z,10.76
2019-03-17T02:20:08.143Z,10.87
2019-03-17T02:22:36.865Z,10.85
2019-03-17T02:25:06.686Z,10.86
2019-03-17T02:27:35.408Z,10.83
2019-03-17T02:30:05.481Z,10.80
2019-03-17T02:32:34.012Z,10.88
2019-03-17T02:35:02.648Z,10.81
2019-03-17T02:37:31.414Z,10.80
2019-03-17T02:40:00.547Z,10.72
2019-03-17T02:42:29.838Z,10.72
2019-03-17T02:44:58.689Z,10.62
2019-03-17T02:47:27.380Z,10.52
2019-03-17T02:49:56.070Z,10.53
2019-03-17T02:52:24.854Z,10.49
2019-03-17T02:54:53.582Z,10.46
2019-03-17T02:57:22.298Z,10.47
2019-03-17T02:59:51.072Z,10.43
2019-03-17T03:02:19.783Z,10.44
2019-03-17T03:04:48.614Z,10.42
2019-03-17T03:07:17.321Z,10.45
2019-03-17T03:09:46.067Z,10.44
2019-03-17T03:12:14.777Z,10.46
2019-03-17T03:14:43.558Z,10.45
2019-03-17T03:17:12.763Z,10.49
2019-03-17T03:19:41.470Z,10.41
2019-03-17T03:22:10.210Z,10.43
2019-03-17T03:24:38.902Z,10.40
2019-03-17T03:27:07.581Z,10.41
2019-03-17T03:29:36.241Z,10.39
2019-03-17T03:32:05.550Z,10.41
2019-03-17T03:34:34.477Z,9.78
2019-03-17T03:37:03.032Z,10.17
2019-03-17T03:39:31.765Z,10.05
2019-03-17T03:42:00.785Z,9.91
2019-03-17T03:44:29.509Z,9.75
2019-03-17T03:46:58.126Z,9.63
2019-03-17T03:49:26.716Z,9.59
2019-03-17T03:51:55.270Z,9.57
2019-03-17T03:54:23.985Z,9.41
2019-03-17T03:56:52.641Z,9.33
2019-03-17T03:59:21.371Z,9.24
2019-03-17T04:01:50.029Z,9.17
2019-03-17T04:04:18.689Z,9.14
2019-03-17T04:06:47.309Z,9.11
2019-03-17T04:09:16.001Z,9.07
2019-03-17T04:11:44.766Z,8.96
2019-03-17T04:14:13.584Z,8.89
2019-03-17T04:16:42.207Z,8.89
2019-03-17T04:19:10.976Z,8.81
2019-03-17T04:21:39.607Z,8.78
2019-03-17T04:24:08.335Z,8.75
2019-03-17T04:26:37.058Z,8.71
2019-03-17T04:29:05.793Z,8.71
2019-03-17T04:31:34.698Z,8.63
2019-03-17T04:34:03.413Z,8.62
2019-03-17T04:36:40.171Z,8.57
2019-03-17T04:39:02.664Z,8.57
2019-03-17T04:41:31.275Z,8.59
2019-03-17T04:43:59.929Z,8.61
2019-03-17T04:46:28.658Z,8.56
2019-03-17T04:48:57.545Z,8.54
2019-03-17T04:51:26.429Z,8.56
2019-03-17T04:53:55.199Z,8.57
2019-03-17T04:56:24.046Z,8.61
2019-03-17T04:58:52.643Z,8.59
2019-03-17T05:01:21.310Z,8.54
2019-03-17T05:03:50.100Z,8.54
2019-03-17T05:06:18.726Z,8.54
2019-03-17T05:08:47.352Z,8.55
2019-03-17T05:11:16.244Z,8.52
2019-03-17T05:13:44.983Z,8.50
2019-03-17T05:16:13.673Z,8.48
2019-03-17T05:18:42.498Z,8.45
2019-03-17T05:21:11.042Z,8.48
2019-03-17T05:23:39.591Z,8.41
2019-03-17T05:26:08.241Z,8.41
2019-03-17T05:28:37.003Z,8.39
2019-03-17T05:31:05.703Z,7.69
2019-03-17T05:33:34.393Z,7.07
2019-03-17T05:36:03.170Z,6.72
2019-03-17T05:38:31.793Z,6.53
2019-03-17T05:41:00.623Z,6.48
2019-03-17T05:43:29.299Z,6.40
2019-03-17T05:45:57.926Z,6.37
2019-03-17T05:48:26.638Z,6.33
2019-03-17T05:50:55.933Z,6.28
2019-03-17T05:53:24.775Z,6.30
2019-03-17T05:55:53.467Z,6.30
2019-03-17T05:58:22.122Z,6.19
2019-03-17T06:00:50.806Z,6.17
2019-03-17T06:03:19.658Z,6.13
2019-03-17T06:05:48.351Z,6.08
2019-03-17T06:08:17.041Z,6.07
2019-03-17T06:10:45.931Z,6.03
2019-03-17T06:13:14.645Z,6.08
2019-03-17T06:15:43.365Z,6.07
2019-03-17T06:18:12.102Z,6.05
2019-03-17T06:20:40.851Z,5.98
2019-03-17T06:23:09.474Z,5.99
2019-03-17T06:25:38.118Z,6.00
2019-03-17T06:28:06.795Z,5.96
2019-03-17T06:30:35.567Z,6.04
2019-03-17T06:33:04.902Z,5.93
2019-03-17T06:35:33.772Z,5.92
2019-03-17T06:38:02.451Z,5.94
2019-03-17T06:40:31.181Z,5.90
2019-03-17T06:42:59.928Z,5.90
2019-03-17T06:45:28.661Z,5.88
2019-03-17T06:47:57.350Z,5.97
2019-03-17T06:50:26.240Z,6.02
2019-03-17T06:52:54.971Z,6.02
2019-03-17T06:55:23.693Z,6.04
2019-03-17T06:57:52.358Z,6.05
2019-03-17T07:00:21.066Z,6.05
2019-03-17T07:02:49.858Z,6.02
2019-03-17T07:05:18.394Z,6.00
2019-03-17T07:07:47.053Z,5.99
2019-03-17T07:10:15.872Z,6.02
2019-03-17T07:12:44.713Z,6.06
2019-03-17T07:15:13.543Z,6.06
2019-03-17T07:17:42.302Z,6.15
2019-03-17T07:20:13.452Z,6.20
2019-03-17T07:22:42.113Z,6.18
2019-03-17T07:25:10.956Z,6.20
2019-03-17T07:27:40.440Z,6.22
2019-03-17T07:30:14.733Z,6.18
2019-03-17T07:32:43.467Z,6.19
2019-03-17T07:35:12.264Z,6.17
2019-03-17T07:37:41.706Z,6.23
2019-03-17T07:40:12.281Z,6.28
2019-03-17T07:42:42.446Z,6.29
2019-03-17T07:45:12.702Z,6.32
2019-03-17T07:47:42.249Z,6.32
2019-03-17T07:50:14.497Z,6.30
2019-03-17T07:52:44.589Z,6.25
2019-03-17T07:55:13.479Z,6.23
2019-03-17T07:57:42.360Z,6.30
2019-03-17T08:00:15.376Z,6.31
2019-03-17T08:02:44.913Z,6.49
2019-03-17T08:05:13.767Z,6.52
2019-03-17T08:07:43.204Z,6.73
2019-03-17T08:10:13.788Z,6.65
2019-03-17T08:12:42.783Z,6.63
2019-03-17T08:15:13.883Z,6.71
2019-03-17T08:17:42.576Z,6.69
2019-03-17T08:20:16.347Z,6.80
2019-03-17T08:22:55.534Z,6.76
2019-03-17T08:25:24.323Z,6.70
2019-03-17T08:27:53.054Z,6.74
2019-03-17T08:30:21.901Z,7.25
2019-03-17T08:32:51.453Z,7.75
2019-03-17T08:35:20.064Z,7.91
2019-03-17T08:37:50.981Z,8.87
2019-03-17T08:40:23.308Z,8.87
2019-03-17T08:42:51.848Z,9.05
2019-03-17T08:45:21.934Z,9.15
2019-03-17T08:47:57.759Z,9.46
2019-03-17T08:50:23.106Z,9.47
2019-03-17T08:52:51.754Z,8.76
2019-03-17T08:55:20.484Z,8.51
2019-03-17T08:57:49.763Z,8.87
2019-03-17T09:00:19.606Z,8.59
2019-03-17T09:02:48.871Z,9.43
2019-03-17T09:05:17.596Z,9.52
2019-03-17T09:07:46.339Z,9.16
2019-03-17T09:10:18.197Z,9.14
2019-03-17T09:12:47.244Z,10.03
2019-03-17T09:15:16.013Z,10.55
2019-03-17T09:17:44.776Z,10.06
2019-03-17T09:20:16.619Z,9.43
2019-03-17T09:22:45.463Z,8.98
2019-03-17T09:25:14.184Z,8.77
2019-03-17T09:27:45.087Z,8.33
2019-03-17T09:30:15.649Z,7.61
2019-03-17T09:32:46.349Z,7.16
2019-03-17T09:35:17.414Z,6.68
2019-03-17T09:37:54.426Z,6.65
2019-03-17T09:40:23.219Z,6.41
2019-03-17T09:42:52.085Z,6.44
2019-03-17T09:45:21.042Z,6.57
2019-03-17T09:47:50.080Z,6.61
2019-03-17T09:50:20.760Z,6.71
2019-03-17T09:52:50.316Z,6.64
2019-03-17T09:55:19.450Z,6.73
2019-03-17T09:57:48.610Z,7.15
2019-03-17T10:00:21.641Z,7.99
2019-03-17T10:02:52.458Z,8.62
2019-03-17T10:05:23.697Z,8.64
2019-03-17T10:07:57.690Z,9.29
2019-03-17T10:10:28.358Z,9.57
2019-03-17T10:12:59.091Z,9.57
2019-03-17T10:15:29.002Z,9.80
2019-03-17T10:17:58.212Z,9.41
2019-03-17T10:20:27.858Z,9.68
2019-03-17T10:22:56.778Z,9.67
2019-03-17T10:25:25.784Z,10.12
2019-03-17T10:27:54.932Z,10.15
2019-03-17T10:30:24.135Z,10.17
2019-03-17T10:32:53.219Z,9.89
2019-03-17T10:35:22.260Z,9.68
2019-03-17T10:37:51.202Z,9.56
2019-03-17T10:40:23.632Z,9.66
2019-03-17T10:42:52.741Z,9.50
2019-03-17T10:45:23.304Z,9.40
2019-03-17T10:47:54.512Z,9.45
2019-03-17T10:50:28.253Z,9.73
2019-03-17T10:52:57.152Z,10.09
2019-03-17T10:55:27.740Z,9.57
2019-03-17T10:57:58.268Z,10.08
2019-03-17T11:00:33.287Z,10.20
2019-03-17T11:03:02.808Z,9.26
2019-03-17T11:05:38.524Z,9.12
2019-03-17T11:08:07.603Z,9.63
2019-03-17T11:10:39.586Z,10.37
2019-03-17T11:13:08.796Z,10.65
2019-03-17T11:15:37.608Z,10.24
2019-03-17T11:18:08.950Z,10.47
2019-03-17T11:20:39.636Z,10.60
2019-03-17T11:23:08.900Z,10.76
2019-03-17T11:25:40.917Z,9.90
2019-03-17T11:28:11.054Z,9.45
2019-03-17T11:30:42.936Z,8.68
2019-03-17T11:33:16.504Z,6.63
2019-03-17T11:35:47.025Z,6.28
2019-03-17T11:38:16.503Z,6.07
2019-03-17T11:40:45.356Z,5.80
2019-03-17T11:43:15.638Z,5.85
2019-03-17T11:45:44.787Z,5.92
2019-03-17T11:48:13.713Z,6.02
2019-03-17T11:50:44.412Z,6.42
2019-03-17T11:53:16.617Z,6.43
2019-03-17T11:55:48.279Z,6.38
2019-03-17T11:58:17.736Z,6.20
2019-03-17T12:00:49.665Z,6.26
2019-03-17T12:03:19.952Z,6.27
2019-03-17T12:05:52.257Z,6.41
2019-03-17T12:08:21.548Z,6.70
2019-03-17T12:10:52.411Z,7.12
2019-03-17T12:13:24.830Z,6.99
2019-03-17T12:16:09.203Z,7.03
2019-03-17T12:18:37.035Z,6.95
2019-03-17T12:21:09.415Z,6.97
2019-03-17T12:23:43.645Z,7.00
2019-03-17T12:26:14.054Z,7.17
2019-03-17T12:28:43.793Z,7.19
2019-03-17T12:31:23.178Z,7.46
2019-03-17T12:33:49.019Z,7.52
2019-03-17T12:36:19.162Z,7.44
2019-03-17T12:38:50.802Z,7.57
2019-03-17T12:41:27.785Z,8.07
2019-03-17T12:43:56.632Z,8.65
2019-03-17T12:46:28.795Z,8.91
2019-03-17T12:48:59.524Z,8.70
2019-03-17T12:51:31.356Z,8.77
2019-03-17T12:54:00.098Z,8.87
2019-03-17T12:56:43.200Z,9.05
2019-03-17T12:59:24.215Z,9.05
2019-03-17T13:01:52.065Z,9.22
2019-03-17T13:04:23.124Z,9.52
2019-03-17T13:06:54.378Z,9.60
2019-03-17T13:09:37.955Z,9.78
2019-03-17T13:12:23.333Z,9.88
2019-03-17T13:15:05.225Z,9.86
2019-03-17T13:17:51.534Z,10.12
2019-03-17T13:20:38.248Z,9.90
2019-03-17T13:23:26.307Z,9.60
2019-03-17T13:26:16.901Z,9.11
2019-03-17T13:29:05.241Z,8.76
2019-03-17T13:31:56.859Z,9.54
2019-03-17T13:34:33.887Z,10.03
2019-03-17T13:37:06.836Z,9.78
2019-03-17T13:39:39.242Z,10.01
2019-03-17T13:42:08.024Z,10.34
2019-03-17T13:44:36.970Z,10.59
2019-03-17T13:47:07.826Z,10.93
2019-03-17T13:49:37.420Z,10.45
2019-03-17T13:52:06.432Z,10.46
2019-03-17T13:54:35.220Z,9.85
2019-03-17T13:57:03.940Z,9.62
2019-03-17T13:59:32.682Z,9.47
2019-03-17T14:02:01.544Z,9.16
2019-03-17T14:04:30.384Z,9.50
2019-03-17T14:06:59.088Z,9.57
2019-03-17T14:09:27.834Z,9.55
2019-03-17T14:11:56.733Z,9.84
2019-03-17T14:14:25.626Z,10.67
2019-03-17T14:16:56.842Z,11.43
2019-03-17T14:19:25.733Z,11.32
2019-03-17T14:21:56.263Z,11.12
2019-03-17T14:24:25.104Z,11.32
2019-03-17T14:26:53.859Z,11.15
2019-03-17T14:29:22.593Z,10.66
2019-03-17T14:31:53.891Z,10.41
2019-03-17T14:34:24.007Z,10.47
2019-03-17T14:36:52.746Z,10.62
2019-03-17T14:39:40.626Z,10.06
2019-03-17T14:42:14.439Z,9.70
2019-03-17T14:44:44.252Z,9.41
2019-03-17T14:47:26.424Z,9.24
2019-03-17T14:50:02.879Z,9.73
2019-03-17T14:52:46.871Z,10.02
2019-03-17T14:55:30.258Z,9.77
2019-03-17T14:58:12.533Z,9.83
2019-03-17T15:00:59.398Z,10.00
2019-03-17T15:03:54.932Z,10.30
2019-03-17T15:06:41.207Z,10.31
2019-03-17T15:09:32.942Z,9.70
2019-03-17T15:12:17.459Z,9.43
2019-03-17T15:14:59.807Z,9.96
2019-03-17T15:17:55.414Z,10.33
2019-03-17T15:20:30.525Z,10.62
2019-03-17T15:23:16.942Z,10.45
2019-03-17T15:26:06.226Z,10.65
2019-03-17T15:28:50.381Z,10.49
2019-03-17T15:31:34.396Z,10.42
2019-03-17T15:34:04.186Z,9.84
2019-03-17T15:36:47.405Z,9.67
2019-03-17T15:39:32.991Z,9.51
2019-03-17T15:42:19.440Z,9.63
2019-03-17T15:45:03.855Z,9.37
2019-03-17T15:47:46.382Z,9.46
2019-03-17T15:50:32.302Z,9.20
2019-03-17T15:53:16.330Z,8.85
2019-03-17T15:55:58.397Z,8.55
2019-03-17T15:58:36.920Z,8.43
2019-03-17T16:01:07.313Z,8.39
2019-03-17T16:03:50.813Z,8.44
2019-03-17T16:06:35.200Z,8.34
2019-03-17T16:09:19.725Z,8.47
2019-03-17T16:12:05.239Z,8.56
2019-03-17T16:14:47.153Z,8.38
2019-03-17T16:17:35.362Z,8.37
2019-03-17T16:20:20.962Z,8.53
2019-03-17T16:23:14.300Z,8.69
2019-03-17T16:26:09.143Z,8.61
2019-03-17T16:31:45.909Z,8.61
2019-03-17T16:34:29.350Z,8.54
2019-03-17T16:37:14.317Z,8.42
2019-03-17T16:43:04.887Z,8.19
2019-03-17T16:45:51.178Z,8.04
2019-03-17T16:48:35.239Z,7.91
2019-03-17T16:51:17.827Z,7.77
2019-03-17T16:54:01.750Z,7.03
2019-03-17T16:56:44.763Z,7.60
2019-03-17T16:59:20.996Z,7.65
2019-03-17T17:01:53.692Z,7.82
2019-03-17T17:04:24.975Z,7.93
2019-03-17T17:07:03.649Z,8.01
2019-03-17T17:09:36.107Z,7.87
2019-03-17T17:12:07.740Z,7.80
2019-03-17T17:14:38.136Z,7.64
2019-03-17T17:17:08.536Z,7.50
2019-03-17T17:19:38.790Z,7.39
2019-03-17T17:22:10.514Z,7.31
2019-03-17T17:24:40.612Z,7.22
2019-03-17T17:27:11.158Z,7.17
2019-03-17T17:29:44.303Z,7.07
2019-03-17T17:32:14.081Z,7.01
2019-03-17T17:34:43.268Z,6.95
2019-03-17T17:37:12.120Z,6.88
2019-03-17T17:39:40.854Z,6.80
2019-03-17T17:42:10.382Z,6.68
2019-03-17T17:44:39.855Z,6.66
2019-03-17T17:47:08.507Z,6.62
2019-03-17T17:49:37.306Z,6.65
2019-03-17T17:52:06.097Z,6.69
2019-03-17T17:54:34.892Z,6.70
2019-03-17T17:57:03.566Z,6.77
2019-03-17T17:59:32.176Z,6.78
2019-03-17T18:02:00.829Z,6.74
2019-03-17T18:04:29.441Z,6.74
2019-03-17T18:06:57.966Z,6.64
2019-03-17T18:09:26.600Z,6.61
2019-03-17T18:11:55.571Z,6.54
2019-03-17T18:14:26.037Z,6.45
2019-03-17T18:16:55.770Z,6.41
2019-03-17T18:19:27.332Z,6.40
2019-03-17T18:21:56.870Z,6.32
2019-03-17T18:24:25.866Z,6.20
2019-03-17T18:26:54.785Z,6.18
2019-03-17T18:29:23.879Z,6.23
2019-03-17T18:31:52.740Z,6.20
2019-03-17T18:34:21.999Z,6.17
2019-03-17T18:36:50.961Z,6.12
2019-03-17T18:39:20.154Z,6.05
2019-03-17T18:41:52.528Z,6.03
2019-03-17T18:44:21.616Z,6.01
2019-03-17T18:46:50.921Z,5.96
2019-03-17T18:49:19.713Z,5.88
2019-03-17T18:51:48.690Z,5.84
2019-03-17T18:54:17.393Z,5.73
2019-03-17T18:56:46.339Z,5.62
2019-03-17T18:59:17.778Z,5.54
2019-03-17T19:01:45.866Z,5.51
2019-03-17T19:04:16.674Z,5.43
2019-03-17T19:06:46.877Z,5.47
2019-03-17T19:09:17.012Z,5.48
2019-03-17T19:11:48.353Z,5.53
2019-03-17T19:14:18.936Z,5.47
2019-03-17T19:16:52.326Z,5.36
2019-03-17T19:19:25.893Z,5.38
2019-03-17T19:21:55.060Z,5.31
2019-03-17T19:24:24.257Z,5.28
2019-03-17T19:26:54.839Z,5.36
2019-03-17T19:29:24.722Z,5.29
2019-03-17T19:31:55.183Z,5.25
2019-03-17T19:34:24.291Z,5.36
2019-03-17T19:36:53.319Z,5.26
2019-03-17T19:39:22.375Z,5.25
2019-03-17T19:41:51.361Z,5.33
2019-03-17T19:44:24.607Z,5.38
2019-03-17T19:46:53.975Z,5.39
2019-03-17T19:49:23.916Z,5.34
2019-03-17T19:51:54.601Z,5.27
2019-03-17T19:54:24.004Z,5.26
2019-03-17T19:56:53.511Z,5.26
2019-03-17T19:59:27.254Z,5.26
2019-03-17T20:01:59.628Z,5.14
2019-03-17T20:04:35.187Z,5.13
2019-03-17T20:07:02.331Z,5.11
2019-03-17T20:09:31.316Z,5.17
2019-03-17T20:12:01.902Z,5.16
2019-03-17T20:14:30.703Z,5.09
2019-03-17T20:16:59.594Z,5.12
2019-03-17T20:19:28.445Z,5.08
2019-03-17T20:21:58.044Z,5.05
2019-03-17T20:24:26.934Z,5.08
2019-03-17T20:26:55.650Z,5.08
2019-03-17T20:29:24.487Z,5.06
2019-03-17T20:31:53.371Z,5.14
2019-03-17T20:34:22.163Z,5.10
2019-03-17T20:36:50.956Z,5.07
2019-03-17T20:39:19.526Z,5.04
2019-03-17T20:41:48.132Z,5.00
2019-03-17T20:44:16.703Z,5.08
2019-03-17T20:46:45.343Z,5.17
2019-03-17T20:49:14.827Z,5.20
2019-03-17T20:51:43.541Z,5.16
2019-03-17T20:54:12.288Z,5.16
2019-03-17T20:56:41.092Z,5.07
2019-03-17T20:59:10.125Z,5.05
2019-03-17T21:01:38.769Z,5.02
2019-03-17T21:04:17.811Z,4.97
2019-03-17T21:06:46.684Z,4.92
2019-03-17T21:09:15.389Z,4.93
2019-03-17T21:11:44.480Z,4.99
2019-03-17T21:14:13.483Z,4.95
2019-03-17T21:16:42.197Z,4.92
2019-03-17T21:19:35.415Z,5.00
2019-03-17T21:22:05.214Z,4.99
2019-03-17T21:24:33.806Z,4.29
2019-03-17T21:27:02.660Z,4.89
2019-03-17T21:29:31.940Z,4.87
2019-03-17T21:32:04.424Z,4.97
2019-03-17T21:34:33.171Z,4.97
2019-03-17T21:37:01.668Z,4.81
2019-03-17T21:39:33.590Z,4.77
2019-03-17T21:42:03.586Z,4.78
2019-03-17T21:44:32.608Z,4.79
2019-03-17T21:47:01.300Z,4.79
2019-03-17T21:49:30.279Z,4.76
2019-03-17T21:51:59.043Z,4.73
2019-03-17T21:54:27.817Z,4.67
2019-03-17T21:56:56.497Z,4.68
2019-03-17T21:59:25.394Z,4.66
2019-03-17T22:01:54.067Z,4.63
2019-03-17T22:04:23.156Z,4.67
2019-03-17T22:06:52.039Z,4.69
2019-03-17T22:09:21.708Z,4.70
2019-03-17T22:11:50.683Z,4.62
2019-03-17T22:14:19.374Z,4.57
2019-03-17T22:16:48.490Z,4.66
2019-03-17T22:19:17.493Z,4.65
2019-03-17T22:21:46.892Z,4.62
2019-03-17T22:24:15.933Z,4.58
2019-03-17T22:26:44.576Z,4.60
2019-03-17T22:29:13.186Z,4.58
2019-03-17T22:31:42.421Z,4.57
2019-03-17T22:34:11.256Z,4.58
2019-03-17T22:36:40.263Z,4.51
2019-03-17T22:39:11.290Z,4.49
2019-03-17T22:41:39.184Z,4.43
2019-03-17T22:44:08.165Z,4.42
2019-03-17T22:46:36.719Z,4.37
2019-03-17T22:49:05.646Z,4.29
2019-03-17T22:51:34.406Z,4.34
2019-03-17T22:54:03.058Z,4.33
2019-03-17T22:56:31.860Z,4.32
2019-03-17T22:59:00.555Z,4.26
2019-03-17T23:01:29.245Z,4.30
2019-03-17T23:03:57.972Z,4.25
2019-03-17T23:06:26.633Z,4.27
2019-03-17T23:08:55.267Z,4.26
2019-03-17T23:11:24.060Z,4.25
2019-03-17T23:13:52.874Z,4.34
2019-03-17T23:16:21.532Z,4.41
2019-03-17T23:18:50.128Z,4.45
2019-03-17T23:21:18.915Z,4.46
2019-03-17T23:23:47.616Z,4.50
2019-03-17T23:26:16.263Z,4.52
2019-03-17T23:28:44.895Z,4.57
2019-03-17T23:31:13.669Z,4.59
2019-03-17T23:33:42.332Z,4.58
2019-03-17T23:36:11.061Z,4.63
2019-03-17T23:38:39.773Z,4.66
2019-03-17T23:41:08.548Z,4.64
2019-03-17T23:43:37.275Z,4.63
2019-03-17T23:46:06.005Z,4.61
2019-03-17T23:48:34.739Z,4.62
2019-03-17T23:51:03.592Z,4.60
2019-03-17T23:53:32.277Z,4.58
2019-03-17T23:56:01.016Z,4.58
2019-03-17T23:58:29.736Z,4.56
